Time;durP1;ratioP1;P1;durP2;ratioP2;P2;SDS_P1;SDS_P2;PMS_P1;PMS_P2;Temp;Humidity;BMP_temperature;BMP_pressure;BME280_temperature;BME280_humidity;BME280_pressure;Samples;Min_cycle;Max_cycle;Signal;HPM_P1;HPM_P2
2024/03/02 00:02:19;;;;;;;2.28;1.50;;;20.70;53.00;;;;;;5079626;28;20042;-66
2024/03/02 00:04:45;;;;;;;2.10;1.33;;;20.70;53.00;;;;;;5079634;28;20516;-67
2024/03/02 00:07:14;;;;;;;2.45;1.50;;;20.70;53.00;;;;;;5078839;28;20485;-66
2024/03/02 00:09:40;;;;;;;2.53;1.20;;;20.70;53.00;;;;;;5078705;28;20032;-67
2024/03/02 00:12:06;;;;;;;2.38;1.40;;;20.70;53.00;;;;;;5076377;28;20028;-66
2024/03/02 00:14:31;;;;;;;2.10;1.40;;;20.70;53.00;;;;;;5077432;28;20036;-67
2024/03/02 00:16:57;;;;;;;2.00;1.50;;;20.70;53.00;;;;;;5078917;28;20050;-66
2024/03/02 00:19:23;;;;;;;2.40;1.50;;;20.70;53.00;;;;;;5058402;28;20044;-63
2024/03/02 00:21:49;;;;;;;2.67;1.40;;;20.70;53.00;;;;;;5078642;28;20112;-63
2024/03/02 00:24:43;;;;;;;2.35;1.40;;;20.70;53.00;;;;;;5078407;28;20477;-63
2024/03/02 00:27:14;;;;;;;2.55;1.50;;;20.70;53.00;;;;;;5065895;28;20515;-64
2024/03/02 00:29:42;;;;;;;2.40;1.30;;;20.70;53.00;;;;;;5077379;28;20051;-64
2024/03/02 00:32:15;;;;;;;2.00;1.30;;;20.70;53.00;;;;;;5079946;28;20024;-63
2024/03/02 00:34:41;;;;;;;1.90;1.30;;;20.60;52.90;;;;;;5078005;28;20020;-63
2024/03/02 00:37:07;;;;;;;1.73;1.15;;;20.60;52.90;;;;;;5077265;28;20034;-63
2024/03/02 00:39:33;;;;;;;2.15;1.25;;;20.60;52.90;;;;;;5077032;28;20063;-63
2024/03/02 00:41:58;;;;;;;1.95;1.35;;;20.60;52.90;;;;;;5074359;28;20064;-63
2024/03/02 00:44:34;;;;;;;2.13;1.40;;;20.60;52.90;;;;;;5077225;28;20103;-62
2024/03/02 00:46:59;;;;;;;2.30;1.27;;;20.60;52.90;;;;;;5078078;28;20488;-62
2024/03/02 00:49:26;;;;;;;1.40;1.00;;;20.60;52.90;;;;;;5079182;28;20021;-64
2024/03/02 00:51:53;;;;;;;1.92;1.10;;;20.60;52.90;;;;;;5076827;28;20087;-63
2024/03/02 00:54:25;;;;;;;2.13;1.30;;;20.60;52.90;;;;;;5061503;28;20143;-63
2024/03/02 00:56:52;;;;;;;1.50;1.00;;;20.60;52.90;;;;;;5078133;28;20040;-64
2024/03/02 00:59:17;;;;;;;2.33;1.20;;;20.60;52.90;;;;;;5077404;28;20111;-63
2024/03/02 01:01:44;;;;;;;1.63;1.02;;;20.60;52.90;;;;;;5079994;28;20548;-63
2024/03/02 01:04:10;;;;;;;2.00;1.27;;;20.60;52.90;;;;;;5078055;28;20421;-62
2024/03/02 01:06:36;;;;;;;2.17;1.40;;;20.60;52.90;;;;;;5077894;28;20094;-63
2024/03/02 01:09:02;;;;;;;1.30;1.02;;;20.50;52.90;;;;;;5076955;28;20465;-63
2024/03/02 01:11:28;;;;;;;1.95;1.15;;;20.50;52.90;;;;;;5076895;28;20020;-63
2024/03/02 01:13:54;;;;;;;1.60;1.10;;;20.50;52.90;;;;;;5061563;28;20028;-64
2024/03/02 01:16:20;;;;;;;2.25;1.30;;;20.50;52.90;;;;;;5079345;28;20042;-63
2024/03/02 01:18:46;;;;;;;2.38;1.17;;;20.50;52.90;;;;;;5078117;28;20075;-63
2024/03/02 01:21:11;;;;;;;1.63;1.13;;;20.50;52.90;;;;;;5077019;28;20056;-64
2024/03/02 01:23:37;;;;;;;1.65;1.10;;;20.50;52.90;;;;;;5082380;28;20388;-63
2024/03/02 01:26:03;;;;;;;2.08;1.20;;;20.50;53.00;;;;;;5082798;28;20028;-64
2024/03/02 01:28:29;;;;;;;1.83;1.13;;;20.50;52.90;;;;;;5082350;28;20020;-62
2024/03/02 01:30:54;;;;;;;2.15;1.20;;;20.50;52.90;;;;;;5079743;28;20027;-63
2024/03/02 01:33:21;;;;;;;2.25;1.27;;;20.50;52.90;;;;;;5082360;28;20032;-63
2024/03/02 01:35:47;;;;;;;1.88;1.10;;;20.40;52.90;;;;;;5081617;28;20108;-63
2024/03/02 01:38:13;;;;;;;1.75;1.10;;;20.40;52.90;;;;;;5081644;28;20103;-66
2024/03/02 01:40:39;;;;;;;2.42;1.20;;;20.50;52.90;;;;;;5081191;28;20100;-65
2024/03/02 01:43:05;;;;;;;2.38;1.38;;;20.50;52.90;;;;;;5060521;28;20544;-66
2024/03/02 01:45:32;;;;;;;2.05;1.27;;;20.40;52.90;;;;;;5084478;28;20512;-66
2024/03/02 01:47:58;;;;;;;1.40;1.00;;;20.40;52.90;;;;;;5080843;28;20045;-65
2024/03/02 01:50:31;;;;;;;1.40;1.10;;;20.40;52.90;;;;;;5081761;28;20515;-66
2024/03/02 01:52:58;;;;;;;1.45;1.05;;;20.40;52.90;;;;;;5081666;28;20024;-66
2024/03/02 01:55:23;;;;;;;1.90;1.20;;;20.40;52.90;;;;;;5082692;28;20058;-66
2024/03/02 01:57:52;;;;;;;1.58;1.05;;;20.40;52.90;;;;;;5061383;28;20059;-66
2024/03/02 02:00:20;;;;;;;1.70;1.15;;;20.40;53.00;;;;;;5084721;28;20024;-66
2024/03/02 02:02:49;;;;;;;1.33;1.00;;;20.40;52.90;;;;;;5080779;28;20047;-66
2024/03/02 02:05:15;;;;;;;;;;;20.40;52.90;;;;;;5081883;28;20025;-66
2024/03/02 02:07:42;;;;;;;2.05;1.02;;;20.40;52.90;;;;;;5063044;28;19912;-66
2024/03/02 02:10:08;;;;;;;1.50;1.10;;;20.40;52.90;;;;;;5061680;28;20107;-65
2024/03/02 02:12:36;;;;;;;1.23;0.90;;;20.40;52.90;;;;;;5078535;28;20017;-66
2024/03/02 02:15:01;;;;;;;1.30;0.98;;;20.40;52.90;;;;;;5081585;28;20029;-67
2024/03/02 02:17:27;;;;;;;1.55;1.00;;;20.40;52.90;;;;;;5080263;28;20029;-66
2024/03/02 02:19:53;;;;;;;2.08;1.30;;;20.40;52.90;;;;;;5096662;28;20131;-66
2024/03/02 02:22:18;;;;;;;1.75;1.10;;;20.40;52.90;;;;;;5081276;28;20035;-66
2024/03/02 02:24:44;;;;;;;1.48;1.00;;;20.40;52.90;;;;;;5081665;28;20079;-66
2024/03/02 02:27:10;;;;;;;1.45;1.00;;;20.40;52.80;;;;;;5076320;28;20064;-66
2024/03/02 02:29:35;;;;;;;2.00;1.10;;;20.40;52.80;;;;;;5062015;28;20020;-66
2024/03/02 02:32:02;;;;;;;1.98;1.10;;;20.30;52.80;;;;;;5081733;28;20107;-67
2024/03/02 02:34:28;;;;;;;1.40;1.00;;;20.30;52.80;;;;;;5078665;28;20484;-67
2024/03/02 02:36:53;;;;;;;2.28;1.00;;;20.30;52.80;;;;;;5078202;28;20032;-66
2024/03/02 02:39:22;;;;;;;1.83;1.20;;;20.30;52.80;;;;;;5082686;28;20506;-64
2024/03/02 02:41:48;;;;;;;1.35;0.90;;;20.30;52.80;;;;;;5076966;28;20031;-63
2024/03/02 02:44:14;;;;;;;1.33;1.02;;;20.30;52.80;;;;;;5079752;28;20082;-63
2024/03/02 02:46:40;;;;;;;1.90;1.05;;;20.30;52.80;;;;;;5078172;28;20040;-62
2024/03/02 02:49:06;;;;;;;1.80;1.00;;;20.30;53.30;;;;;;5080249;28;20381;-66
2024/03/02 02:51:31;;;;;;;1.38;1.00;;;20.30;52.80;;;;;;5081280;28;20028;-66
2024/03/02 02:53:57;;;;;;;1.83;1.10;;;20.30;52.70;;;;;;5078377;28;20131;-66
2024/03/02 02:56:23;;;;;;;1.55;1.08;;;20.30;52.70;;;;;;5078892;28;20020;-67
2024/03/02 02:58:48;;;;;;;1.45;1.00;;;20.30;52.70;;;;;;5077638;28;20032;-66
2024/03/02 03:01:17;;;;;;;2.00;1.00;;;20.30;52.70;;;;;;5070746;28;20032;-66
2024/03/02 03:03:43;;;;;;;1.33;1.00;;;20.30;52.70;;;;;;5082570;28;20028;-66
2024/03/02 03:06:09;;;;;;;1.63;1.00;;;20.30;52.70;;;;;;5080375;28;20622;-66
2024/03/02 03:08:35;;;;;;;1.95;1.10;;;20.30;52.70;;;;;;5079959;28;20099;-66
2024/03/02 03:11:00;;;;;;;1.63;1.02;;;20.30;52.70;;;;;;5079968;28;20028;-66
2024/03/02 03:13:26;;;;;;;1.10;0.90;;;20.30;52.70;;;;;;5077248;28;20373;-66
2024/03/02 03:15:52;;;;;;;1.05;0.90;;;20.30;52.70;;;;;;5078596;28;20016;-66
2024/03/02 03:18:18;;;;;;;1.80;1.20;;;20.30;52.70;;;;;;5079871;28;20038;-66
2024/03/02 03:20:44;;;;;;;1.90;1.10;;;20.30;52.70;;;;;;5077692;28;20101;-66
2024/03/02 03:23:14;;;;;;;1.20;0.90;;;20.20;52.70;;;;;;5079718;28;20268;-66
2024/03/02 03:25:41;;;;;;;1.55;1.10;;;20.20;52.70;;;;;;5079652;28;20028;-66
2024/03/02 03:28:07;;;;;;;1.85;1.10;;;20.20;52.70;;;;;;5077837;28;20025;-65
2024/03/02 03:30:32;;;;;;;1.15;0.93;;;20.20;52.70;;;;;;5080023;28;20477;-66
2024/03/02 03:32:58;;;;;;;1.40;1.00;;;20.20;52.70;;;;;;5080287;28;20024;-66
2024/03/02 03:35:23;;;;;;;1.20;0.90;;;20.20;52.70;;;;;;5081327;28;20122;-65
2024/03/02 03:37:49;;;;;;;1.50;1.10;;;20.20;52.70;;;;;;5079628;28;20035;-66
2024/03/02 03:40:14;;;;;;;1.50;1.00;;;20.20;53.20;;;;;;5079975;28;20106;-66
2024/03/02 03:42:40;;;;;;;1.60;1.10;;;20.20;52.70;;;;;;5073891;28;20036;-66
2024/03/02 03:45:06;;;;;;;1.05;0.90;;;20.20;52.70;;;;;;5080940;28;20020;-66
2024/03/02 03:47:33;;;;;;;1.38;1.00;;;20.20;52.70;;;;;;5080026;28;20028;-66
2024/03/02 03:49:58;;;;;;;1.65;1.10;;;20.20;52.70;;;;;;5060882;28;20400;-66
2024/03/02 03:52:24;;;;;;;1.50;1.00;;;20.20;52.70;;;;;;5078830;28;20033;-66
2024/03/02 03:54:50;;;;;;;1.45;1.00;;;20.20;52.70;;;;;;5078593;28;20476;-66
2024/03/02 03:57:16;;;;;;;1.35;1.00;;;20.20;52.70;;;;;;5079074;28;20111;-67
2024/03/02 03:59:42;;;;;;;1.33;1.00;;;20.10;52.70;;;;;;5076577;28;20154;-66
2024/03/02 04:02:08;;;;;;;1.02;0.90;;;20.20;52.70;;;;;;5078925;28;20024;-66
2024/03/02 04:04:35;;;;;;;1.50;1.10;;;20.20;52.70;;;;;;5079745;28;20027;-66
2024/03/02 04:07:01;;;;;;;1.80;1.10;;;20.20;52.70;;;;;;5080053;28;20040;-66
2024/03/02 04:09:27;;;;;;;1.75;1.13;;;20.20;52.70;;;;;;5076895;28;20025;-66
2024/03/02 04:11:52;;;;;;;1.05;0.90;;;20.20;52.70;;;;;;5077462;28;20031;-67
2024/03/02 04:14:18;;;;;;;1.15;0.90;;;20.20;52.80;;;;;;5077898;28;20484;-67
2024/03/02 04:16:44;;;;;;;1.95;1.02;;;20.10;52.70;;;;;;5060717;28;20187;-66
2024/03/02 04:19:09;;;;;;;1.55;1.10;;;20.10;52.60;;;;;;5069386;28;20046;-67
2024/03/02 04:21:35;;;;;;;1.38;1.00;;;20.10;52.70;;;;;;5077962;28;20034;-66
2024/03/02 04:24:01;;;;;;;1.30;1.00;;;20.10;52.70;;;;;;5080159;28;20047;-66
2024/03/02 04:26:26;;;;;;;1.70;1.10;;;20.10;52.70;;;;;;5079861;28;20031;-68
2024/03/02 04:28:53;;;;;;;1.67;0.90;;;20.10;52.70;;;;;;5076120;28;20480;-66
2024/03/02 04:31:19;;;;;;;1.17;0.90;;;20.10;52.70;;;;;;5080027;28;20104;-67
2024/03/02 04:33:45;;;;;;;1.17;0.80;;;20.10;52.70;;;;;;5078368;28;20099;-66
2024/03/02 04:36:11;;;;;;;1.17;0.90;;;20.10;52.70;;;;;;5076673;28;20051;-67
2024/03/02 04:38:37;;;;;;;1.50;0.93;;;20.10;52.70;;;;;;5078418;28;20035;-66
2024/03/02 04:41:05;;;;;;;1.40;1.00;;;20.10;52.70;;;;;;5078112;28;20082;-66
2024/03/02 04:43:31;;;;;;;1.83;0.90;;;20.10;52.70;;;;;;5073676;28;20174;-66
2024/03/02 04:45:58;;;;;;;1.67;1.15;;;20.10;52.70;;;;;;5078480;28;20069;-67
2024/03/02 04:48:23;;;;;;;1.08;0.80;;;20.10;52.70;;;;;;5078813;28;20024;-66
2024/03/02 04:50:49;;;;;;;1.30;0.98;;;20.10;52.70;;;;;;5089936;28;20031;-66
2024/03/02 04:53:15;;;;;;;1.23;0.90;;;20.10;52.70;;;;;;5075494;28;20024;-67
2024/03/02 04:58:09;;;;;;;1.00;0.90;;;20.10;52.70;;;;;;5079919;28;20146;-66
2024/03/02 05:00:35;;;;;;;1.05;0.85;;;20.10;52.70;;;;;;5081507;28;20079;-66
2024/03/02 05:03:01;;;;;;;1.23;1.00;;;20.10;52.70;;;;;;5082157;28;20056;-66
2024/03/02 05:05:26;;;;;;;1.08;0.90;;;20.10;52.70;;;;;;5082729;28;20117;-66
2024/03/02 05:07:52;;;;;;;1.40;0.98;;;20.00;52.70;;;;;;5084222;28;20030;-66
2024/03/02 05:10:18;;;;;;;1.48;1.00;;;20.00;52.70;;;;;;5063451;28;20028;-62
2024/03/02 05:15:14;;;;;;;1.67;1.13;;;20.00;52.70;;;;;;5084278;28;20024;-64
2024/03/02 05:17:43;;;;;;;1.13;0.98;;;20.00;52.70;;;;;;5084439;28;20055;-63
2024/03/02 05:20:10;;;;;;;1.55;1.00;;;20.00;52.70;;;;;;5081928;28;20045;-66
2024/03/02 05:22:37;;;;;;;1.52;0.98;;;20.00;52.70;;;;;;5065900;28;20047;-66
2024/03/02 05:25:04;;;;;;;1.27;0.85;;;20.00;52.80;;;;;;5082686;28;20028;-65
2024/03/02 05:27:30;;;;;;;1.88;1.10;;;20.00;52.70;;;;;;5096592;28;20115;-66
2024/03/02 05:29:56;;;;;;;2.13;1.20;;;20.00;52.80;;;;;;5095381;28;20048;-66
2024/03/02 05:32:21;;;;;;;1.50;1.10;;;20.00;52.80;;;;;;5081365;28;20074;-66
2024/03/02 05:34:47;;;;;;;1.55;1.00;;;20.00;52.70;;;;;;5083156;28;20020;-65
2024/03/02 05:37:13;;;;;;;1.55;1.10;;;20.00;52.80;;;;;;5083209;28;20046;-65
2024/03/02 05:39:38;;;;;;;1.63;1.10;;;20.00;52.80;;;;;;5080604;28;20106;-66
2024/03/02 05:42:04;;;;;;;1.50;1.10;;;20.00;52.80;;;;;;5082023;28;20028;-66
2024/03/02 05:44:30;;;;;;;1.10;0.93;;;20.00;52.80;;;;;;5080578;28;20115;-66
2024/03/02 05:46:56;;;;;;;1.42;1.00;;;20.00;52.80;;;;;;5083250;28;20067;-66
2024/03/02 05:49:21;;;;;;;1.52;1.02;;;20.00;52.80;;;;;;5083323;28;20031;-66
2024/03/02 05:51:47;;;;;;;1.30;0.90;;;20.00;52.80;;;;;;5082970;28;20024;-66
2024/03/02 05:54:13;;;;;;;1.63;1.00;;;20.00;52.80;;;;;;5081128;28;20024;-66
2024/03/02 05:56:38;;;;;;;1.90;1.10;;;20.00;52.80;;;;;;5081041;28;20127;-66
2024/03/02 05:59:13;;;;;;;1.27;0.85;;;20.00;52.80;;;;;;5079986;28;20032;-66
2024/03/02 06:01:50;;;;;;;1.83;1.20;;;20.00;52.80;;;;;;5082633;28;20028;-66
2024/03/02 06:04:15;;;;;;;1.23;0.90;;;20.00;53.30;;;;;;5080368;28;20028;-66
2024/03/02 06:06:41;;;;;;;1.25;0.90;;;20.00;52.80;;;;;;5079977;28;20032;-66
2024/03/02 06:09:08;;;;;;;1.20;0.90;;;20.00;52.80;;;;;;5080193;28;20055;-64
2024/03/02 06:11:37;;;;;;;1.67;1.05;;;19.90;52.80;;;;;;5081429;28;20351;-63
2024/03/02 06:14:03;;;;;;;1.50;1.00;;;19.90;52.80;;;;;;5082794;28;20469;-64
2024/03/02 06:16:29;;;;;;;1.30;1.00;;;20.00;52.80;;;;;;5080632;28;20031;-63
2024/03/02 06:18:57;;;;;;;1.10;0.80;;;19.90;52.80;;;;;;5082607;28;20112;-63
2024/03/02 06:21:26;;;;;;;1.25;0.90;;;19.90;52.80;;;;;;5081161;28;20025;-63
2024/03/02 06:23:52;;;;;;;1.55;1.10;;;20.00;52.80;;;;;;5081016;28;20103;-65
2024/03/02 06:26:18;;;;;;;1.23;0.93;;;19.90;52.80;;;;;;5076566;28;20060;-63
2024/03/02 06:28:44;;;;;;;1.77;0.90;;;19.90;52.80;;;;;;5077253;28;20044;-65
2024/03/02 06:31:10;;;;;;;1.40;1.05;;;19.90;52.80;;;;;;5081058;28;20036;-65
2024/03/02 06:33:36;;;;;;;1.05;0.90;;;19.90;52.80;;;;;;5077729;28;20025;-65
2024/03/02 06:36:03;;;;;;;1.52;1.00;;;19.90;52.80;;;;;;5079979;28;20032;-65
2024/03/02 06:38:28;;;;;;;1.35;0.90;;;19.90;52.80;;;;;;5080278;28;20024;-65
2024/03/02 06:40:57;;;;;;;1.00;0.90;;;19.90;52.80;;;;;;5063849;28;20036;-65
2024/03/02 06:43:23;;;;;;;1.35;0.90;;;19.90;52.80;;;;;;5079157;28;20070;-65
2024/03/02 06:45:52;;;;;;;1.33;0.98;;;19.90;52.90;;;;;;5080243;28;20464;-65
2024/03/02 06:48:20;;;;;;;1.58;1.10;;;19.90;52.90;;;;;;5079703;28;20145;-65
2024/03/02 06:50:49;;;;;;;1.23;0.90;;;19.90;52.80;;;;;;5083224;28;20500;-65
2024/03/02 06:53:19;;;;;;;;;;;19.90;52.80;;;;;;5080121;28;20027;-65
2024/03/02 06:55:45;;;;;;;1.35;1.00;;;19.90;52.80;;;;;;5081812;28;19987;-65
2024/03/02 06:58:12;;;;;;;1.42;1.08;;;19.90;52.90;;;;;;5079906;28;20543;-65
2024/03/02 07:00:38;;;;;;;2.03;1.20;;;19.90;52.90;;;;;;5078166;28;20020;-65
2024/03/02 07:03:04;;;;;;;1.45;1.00;;;19.90;52.90;;;;;;5065007;28;20039;-65
2024/03/02 07:05:29;;;;;;;1.10;0.90;;;19.90;52.90;;;;;;5080176;28;20044;-65
2024/03/02 07:07:55;;;;;;;1.40;1.00;;;19.90;52.90;;;;;;5081586;28;20063;-65
2024/03/02 07:10:20;;;;;;;1.20;0.90;;;19.90;52.90;;;;;;5064750;28;20033;-65
2024/03/02 07:12:46;;;;;;;1.13;0.90;;;19.90;52.90;;;;;;5078952;28;20044;-65
2024/03/02 07:15:28;;;;;;;1.67;1.20;;;19.90;52.90;;;;;;5078331;28;20044;-65
2024/03/02 07:17:54;;;;;;;1.50;1.00;;;19.90;52.90;;;;;;5060463;28;20090;-65
2024/03/02 07:20:20;;;;;;;1.40;0.90;;;19.90;52.90;;;;;;5079454;28;20472;-63
2024/03/02 07:22:46;;;;;;;0.93;0.73;;;19.90;52.90;;;;;;5078635;28;20056;-63
2024/03/02 07:25:12;;;;;;;1.17;0.88;;;19.90;53.00;;;;;;5080540;28;20395;-63
2024/03/02 07:27:38;;;;;;;1.35;0.90;;;19.80;52.90;;;;;;5079612;28;20427;-63
2024/03/02 07:30:04;;;;;;;1.30;0.98;;;19.90;53.00;;;;;;5076352;28;20384;-65
2024/03/02 07:32:30;;;;;;;1.35;1.00;;;19.80;52.90;;;;;;5079810;28;20043;-65
2024/03/02 07:34:56;;;;;;;1.27;0.88;;;19.80;52.90;;;;;;5078722;28;20028;-65
2024/03/02 07:37:23;;;;;;;1.45;0.90;;;19.80;52.90;;;;;;5082460;28;20669;-65
2024/03/02 07:39:48;;;;;;;1.73;1.13;;;19.80;52.90;;;;;;5080094;28;20028;-63
2024/03/02 07:42:15;;;;;;;1.75;1.10;;;19.80;52.90;;;;;;5081716;28;20031;-63
2024/03/02 07:44:40;;;;;;;1.23;0.90;;;19.80;52.90;;;;;;5078739;28;20567;-63
2024/03/02 07:47:06;;;;;;;1.05;0.85;;;19.80;52.90;;;;;;5079093;28;20067;-63
2024/03/02 07:49:32;;;;;;;1.40;0.95;;;19.80;52.90;;;;;;5079960;28;20025;-63
2024/03/02 07:51:58;;;;;;;1.27;1.00;;;19.80;52.90;;;;;;5079515;28;20024;-63
2024/03/02 07:54:24;;;;;;;1.50;1.08;;;19.80;52.90;;;;;;5077008;28;20507;-63
2024/03/02 07:56:49;;;;;;;1.73;1.17;;;19.80;52.90;;;;;;5079530;28;20061;-63
2024/03/02 07:59:15;;;;;;;1.48;1.08;;;19.80;52.90;;;;;;5077929;28;20492;-63
2024/03/02 08:01:41;;;;;;;1.10;0.98;;;19.80;52.90;;;;;;5079447;28;20174;-63
2024/03/02 08:04:06;;;;;;;1.88;1.10;;;19.80;52.90;;;;;;5078486;28;20036;-63
2024/03/02 08:06:33;;;;;;;1.45;0.98;;;19.80;52.90;;;;;;5079636;28;20032;-63
2024/03/02 08:09:00;;;;;;;1.52;1.00;;;19.80;52.90;;;;;;5080088;28;20407;-63
2024/03/02 08:11:27;;;;;;;1.10;0.90;;;19.80;52.90;;;;;;5062649;28;20102;-63
2024/03/02 08:13:54;;;;;;;1.20;0.90;;;19.80;52.90;;;;;;5078379;28;20158;-63
2024/03/02 08:16:21;;;;;;;1.50;1.00;;;19.80;52.90;;;;;;5077864;28;20029;-63
2024/03/02 08:18:50;;;;;;;1.50;0.93;;;19.80;52.90;;;;;;5078367;28;20463;-63
2024/03/02 08:21:16;;;;;;;0.93;0.80;;;19.80;52.80;;;;;;5077515;28;20383;-63
2024/03/02 08:23:45;;;;;;;1.58;0.88;;;19.80;52.80;;;;;;5080438;28;20060;-64
2024/03/02 08:26:11;;;;;;;1.95;1.00;;;19.80;52.80;;;;;;5079092;28;20029;-63
2024/03/02 08:28:37;;;;;;;1.48;1.08;;;19.80;52.80;;;;;;5081370;28;20028;-63
2024/03/02 08:31:03;;;;;;;2.42;1.10;;;19.80;52.80;;;;;;5076302;28;20107;-62
2024/03/02 08:33:29;;;;;;;1.15;0.82;;;19.80;52.80;;;;;;5077689;28;20506;-62
2024/03/02 08:35:55;;;;;;;1.50;1.00;;;19.80;52.80;;;;;;5078787;28;20054;-63
2024/03/02 08:38:21;;;;;;;1.23;1.00;;;19.80;52.80;;;;;;5060251;28;20124;-62
2024/03/02 08:40:47;;;;;;;1.10;1.00;;;19.80;53.30;;;;;;5078430;28;20169;-65
2024/03/02 08:43:12;;;;;;;1.42;1.00;;;19.80;52.80;;;;;;5062588;28;20029;-65
2024/03/02 08:45:39;;;;;;;1.10;0.90;;;19.80;52.80;;;;;;5077193;28;20107;-65
2024/03/02 08:48:08;;;;;;;1.08;0.90;;;19.80;52.80;;;;;;5078450;28;20028;-64
2024/03/02 08:50:35;;;;;;;2.55;1.10;;;19.80;52.70;;;;;;5077234;28;20383;-63
2024/03/02 08:53:00;;;;;;;1.63;1.10;;;19.80;52.70;;;;;;5077545;28;20024;-63
2024/03/02 08:55:26;;;;;;;1.52;1.13;;;19.80;52.70;;;;;;5077289;28;20108;-63
2024/03/02 08:57:52;;;;;;;1.45;0.98;;;19.80;52.70;;;;;;5077897;28;20384;-62
2024/03/02 09:00:18;;;;;;;1.30;1.00;;;19.80;52.70;;;;;;5074848;28;20429;-63
2024/03/02 09:02:44;;;;;;;1.58;1.00;;;19.80;52.70;;;;;;5079590;28;20024;-64
2024/03/02 09:05:10;;;;;;;1.52;0.93;;;19.80;52.70;;;;;;5079284;28;20128;-62
2024/03/02 09:07:38;;;;;;;1.60;1.10;;;19.80;52.80;;;;;;5080268;28;20039;-63
2024/03/02 09:10:05;;;;;;;1.73;1.00;;;19.80;52.80;;;;;;5077746;28;20029;-63
2024/03/02 09:12:31;;;;;;;1.75;1.00;;;19.80;52.80;;;;;;5078531;28;20129;-63
2024/03/02 09:14:57;;;;;;;0.95;0.90;;;19.80;52.80;;;;;;5076668;28;20465;-63
2024/03/02 09:17:23;;;;;;;1.98;1.00;;;19.80;52.80;;;;;;5078769;28;20040;-63
2024/03/02 09:19:52;;;;;;;1.42;1.02;;;19.80;52.80;;;;;;5078150;28;20032;-63
2024/03/02 09:22:18;;;;;;;1.55;1.10;;;19.80;52.80;;;;;;5077266;28;20496;-62
2024/03/02 09:24:44;;;;;;;1.77;1.00;;;19.80;52.80;;;;;;5076963;28;20070;-64
2024/03/02 09:27:09;;;;;;;1.58;1.00;;;19.80;52.80;;;;;;5078057;28;20111;-64
2024/03/02 09:29:35;;;;;;;1.95;1.20;;;19.80;52.90;;;;;;5073876;28;20511;-63
2024/03/02 09:32:00;;;;;;;1.50;0.90;;;19.80;52.80;;;;;;5077321;28;20384;-63
2024/03/02 09:34:26;;;;;;;1.60;1.10;;;19.80;52.80;;;;;;5078414;28;20024;-63
2024/03/02 09:36:52;;;;;;;1.88;0.90;;;19.80;52.90;;;;;;5078294;28;20074;-63
2024/03/02 09:39:18;;;;;;;1.92;1.10;;;19.80;52.90;;;;;;5077749;28;20037;-64
2024/03/02 09:41:44;;;;;;;1.17;0.93;;;19.80;53.00;;;;;;5077198;28;20035;-64
2024/03/02 09:44:10;;;;;;;1.30;1.00;;;19.90;53.10;;;;;;5082691;28;20024;-63
2024/03/02 09:46:36;;;;;;;1.75;1.10;;;19.80;53.00;;;;;;5080094;28;20084;-63
2024/03/02 09:49:02;;;;;;;1.95;1.10;;;19.80;53.00;;;;;;5082225;28;20028;-65
2024/03/02 09:51:28;;;;;;;1.65;1.10;;;19.90;53.10;;;;;;5082220;28;20400;-65
2024/03/02 09:53:55;;;;;;;1.33;0.90;;;19.90;53.10;;;;;;5081703;28;20051;-65
2024/03/02 09:56:23;;;;;;;1.30;0.90;;;19.80;53.10;;;;;;5081632;28;20380;-65
2024/03/02 09:58:49;;;;;;;1.20;0.90;;;19.80;53.20;;;;;;5080758;28;20020;-62
2024/03/02 10:01:15;;;;;;;0.90;0.82;;;19.90;53.50;;;;;;5081410;28;20021;-63
2024/03/02 10:03:40;;;;;;;1.23;0.80;;;20.00;53.50;;;;;;5082685;28;20376;-64
2024/03/02 10:06:25;;;;;;;1.20;0.88;;;20.00;53.50;;;;;;5082861;28;20035;-62
2024/03/02 10:08:51;;;;;;;1.20;0.80;;;20.20;53.50;;;;;;5079822;28;20412;-66
2024/03/02 10:11:35;;;;;;;1.98;0.80;;;20.20;53.50;;;;;;5081075;28;20476;-66
2024/03/02 10:14:13;;;;;;;1.65;1.00;;;20.40;53.10;;;;;;5081927;28;20884;-65
2024/03/02 10:16:44;;;;;;;1.08;0.75;;;20.50;53.10;;;;;;5078925;28;20024;-66
2024/03/02 10:19:17;;;;;;;1.85;1.10;;;20.50;52.90;;;;;;5079862;28;20091;-66
2024/03/02 10:21:43;;;;;;;2.13;0.95;;;20.60;52.80;;;;;;5076906;28;20025;-65
2024/03/02 10:24:09;;;;;;;1.92;0.95;;;20.70;52.80;;;;;;5079720;28;20025;-66
2024/03/02 10:26:35;;;;;;;1.52;0.88;;;20.70;52.60;;;;;;5065622;28;20031;-65
2024/03/02 10:29:00;;;;;;;1.05;0.80;;;20.80;52.60;;;;;;5080186;28;20024;-66
2024/03/02 10:31:27;;;;;;;1.13;1.00;;;20.90;52.60;;;;;;5079316;28;20068;-67
2024/03/02 10:33:55;;;;;;;1.30;0.82;;;20.90;52.50;;;;;;5081938;28;20032;-66
2024/03/02 10:36:21;;;;;;;1.30;0.90;;;21.00;52.50;;;;;;5079884;28;20528;-66
2024/03/02 10:38:48;;;;;;;0.95;0.70;;;21.10;52.40;;;;;;5079813;28;20035;-65
2024/03/02 10:41:18;;;;;;;1.95;0.90;;;21.20;52.40;;;;;;5081522;28;20052;-66
2024/03/02 10:43:44;;;;;;;0.80;0.77;;;21.20;52.20;;;;;;5078282;28;20031;-66
2024/03/02 10:46:13;;;;;;;1.10;0.80;;;21.30;52.20;;;;;;5077556;28;20570;-66
2024/03/02 10:48:40;;;;;;;0.82;0.80;;;21.40;51.90;;;;;;5080409;28;20024;-66
2024/03/02 10:51:06;;;;;;;1.33;0.90;;;21.50;52.00;;;;;;5079469;28;20595;-66
2024/03/02 10:53:32;;;;;;;1.33;0.80;;;21.60;51.80;;;;;;5061413;28;20052;-65
2024/03/02 10:56:04;;;;;;;1.80;0.88;;;21.60;51.60;;;;;;5077616;28;20027;-66
2024/03/02 10:58:33;;;;;;;1.40;0.95;;;21.70;51.50;;;;;;5079983;28;20476;-66
2024/03/02 11:01:03;;;;;;;1.63;0.80;;;21.70;51.10;;;;;;5076914;28;20333;-65
2024/03/02 11:03:35;;;;;;;1.85;0.73;;;21.80;51.10;;;;;;5079584;28;20119;-65
2024/03/02 11:06:06;;;;;;;1.25;0.80;;;21.80;51.10;;;;;;5079847;28;20365;-65
2024/03/02 11:08:36;;;;;;;1.08;0.80;;;21.80;51.10;;;;;;5078434;28;20032;-65
2024/03/02 11:11:12;;;;;;;1.10;0.90;;;21.80;51.10;;;;;;5079227;28;20388;-65
2024/03/02 11:13:41;;;;;;;1.20;0.80;;;21.80;51.10;;;;;;5080120;28;20476;-65
2024/03/02 11:16:34;;;;;;;1.50;0.90;;;21.80;51.10;;;;;;5078886;28;20468;-66
2024/03/02 11:19:02;;;;;;;1.02;0.80;;;21.80;51.10;;;;;;5078242;28;20032;-66
2024/03/02 11:21:27;;;;;;;1.63;1.10;;;21.80;51.00;;;;;;5078759;28;20492;-66
2024/03/02 11:23:53;;;;;;;1.20;0.80;;;21.80;51.10;;;;;;5077806;28;20032;-66
2024/03/02 11:26:19;;;;;;;1.52;0.80;;;21.90;51.10;;;;;;5080701;28;20098;-66
2024/03/02 11:28:45;;;;;;;1.92;0.90;;;21.90;51.00;;;;;;5078452;28;20028;-65
2024/03/02 11:31:11;;;;;;;0.90;0.80;;;21.90;51.00;;;;;;5076477;28;20036;-64
2024/03/02 11:33:37;;;;;;;1.55;0.90;;;21.90;51.00;;;;;;5078819;28;20384;-63
2024/03/02 11:36:03;;;;;;;2.17;1.00;;;21.90;50.90;;;;;;5081167;28;20067;-63
2024/03/02 11:38:34;;;;;;;2.05;0.90;;;21.90;50.90;;;;;;5079317;28;20528;-63
2024/03/02 11:41:01;;;;;;;1.30;0.90;;;21.90;50.80;;;;;;5078757;28;20032;-64
2024/03/02 11:43:28;;;;;;;1.50;0.95;;;21.90;50.80;;;;;;5079112;28;20468;-64
2024/03/02 11:46:04;;;;;;;1.25;0.93;;;21.90;50.80;;;;;;5078104;28;20488;-63
2024/03/02 11:48:29;;;;;;;1.35;0.90;;;21.90;50.90;;;;;;5080682;28;20103;-63
2024/03/02 11:50:58;;;;;;;1.88;0.93;;;21.90;50.90;;;;;;5078624;28;20108;-63
2024/03/02 11:53:27;;;;;;;2.00;1.00;;;22.00;50.90;;;;;;5079112;28;20032;-63
2024/03/02 11:55:58;;;;;;;2.17;1.20;;;22.00;51.00;;;;;;5077756;28;20038;-63
2024/03/02 11:58:24;;;;;;;2.95;0.90;;;22.00;50.90;;;;;;5060586;28;20456;-63
2024/03/02 12:00:55;;;;;;;1.20;1.00;;;22.00;50.90;;;;;;5077429;28;20032;-64
2024/03/02 12:03:22;;;;;;;1.27;0.90;;;22.00;50.90;;;;;;5075541;28;20584;-63
2024/03/02 12:05:53;;;;;;;2.38;0.90;;;22.00;50.90;;;;;;5077776;28;20043;-63
2024/03/02 12:08:19;;;;;;;2.22;0.93;;;22.10;51.00;;;;;;5079292;28;20050;-64
2024/03/02 12:10:57;;;;;;;1.80;0.90;;;22.00;51.00;;;;;;5080495;28;20364;-62
2024/03/02 12:13:23;;;;;;;2.25;1.00;;;22.00;51.00;;;;;;5081554;28;20032;-62
2024/03/02 12:15:55;;;;;;;2.20;0.93;;;22.10;51.00;;;;;;5077479;28;20165;-61
2024/03/02 12:18:20;;;;;;;1.52;1.10;;;22.10;51.00;;;;;;5077347;28;20334;-62
2024/03/02 12:20:48;;;;;;;2.15;0.90;;;22.10;51.50;;;;;;5076491;28;20039;-63
2024/03/02 12:23:14;;;;;;;1.45;0.90;;;22.10;51.00;;;;;;5080303;28;20035;-62
2024/03/02 12:25:40;;;;;;;2.75;1.00;;;22.10;51.10;;;;;;5077566;28;20028;-63
2024/03/02 12:28:07;;;;;;;2.22;1.10;;;22.10;51.10;;;;;;5079579;28;20050;-62
2024/03/02 12:30:39;;;;;;;2.90;1.20;;;22.10;51.00;;;;;;5079370;28;20468;-66
2024/03/02 12:33:05;;;;;;;3.25;1.10;;;22.10;51.00;;;;;;5075582;28;20020;-66
2024/03/02 12:35:31;;;;;;;4.75;1.20;;;22.20;51.00;;;;;;5077915;28;20464;-66
2024/03/02 12:37:58;;;;;;;2.42;1.23;;;22.20;51.00;;;;;;5063705;28;20032;-66
2024/03/02 12:40:25;;;;;;;2.60;1.20;;;22.20;50.90;;;;;;5078689;28;20024;-63
2024/03/02 12:42:51;;;;;;;2.88;1.20;;;22.30;50.90;;;;;;5077879;28;20033;-63
2024/03/02 12:45:23;;;;;;;1.98;1.10;;;22.30;50.90;;;;;;5078764;28;20161;-63
2024/03/02 12:47:50;;;;;;;2.38;1.20;;;22.30;50.90;;;;;;5076282;28;20128;-63
2024/03/02 12:50:18;;;;;;;3.63;1.20;;;22.30;50.80;;;;;;5079689;28;20056;-63
2024/03/02 12:52:43;;;;;;;1.70;1.15;;;22.30;50.70;;;;;;5078384;28;20021;-63